West Fenwick, Delaware
Current Conditions -  °F | °C
As of 2:53 PM on Friday 31 Oct 2014 (Local Time) from KOXB Reporting Station
Overcast Overcast  
Wind Chill: 55°   Ceiling: 3900
Heat Index: 55°   Visibility: 10mi
Dew Point: 38°   Wind: 9mph
Humidity: 53%   Direction: 10°N
Pressure: 29.85"   Gusts: NA
Location:  38.4673°N, 75.1926°W
Report Text: KOXB 311853Z AUTO 01008KT 10SM OVC039 13/03 A2985 RMK AO2 SLP109 T01280033 TSNO
Loading
Personal Weather Stations






























Interactive Weather Map
Tropical Storm Tracking
New forecast layout! Learn more

10-Day Weather Forecast

Advertisements
Track Severe Weather on mobile